Time;durP1;ratioP1;P1;durP2;ratioP2;P2;SDS_P1;SDS_P2;PMS_P1;PMS_P2;Temp;Humidity;BMP_temperature;BMP_pressure;BME280_temperature;BME280_humidity;BME280_pressure;Samples;Min_cycle;Max_cycle;Signal;HPM_P1;HPM_P2
2022/03/31 00:00:49;;;;;;;;;54.50;39.00;;;;;10.27;72.33;99723.16;4978363;28;45305;-60
2022/03/31 00:03:17;;;;;;;;;40.50;32.00;;;;;10.26;72.34;99727.50;4978932;28;45477;-60
2022/03/31 00:05:44;;;;;;;;;38.00;34.75;;;;;10.23;71.98;99725.03;4978049;28;45233;-60
2022/03/31 00:08:13;;;;;;;;;41.25;31.25;;;;;10.21;71.74;99724.25;4978498;28;46397;-60
2022/03/31 00:10:58;;;;;;;;;29.25;24.50;;;;;10.18;71.03;99719.13;4978319;28;45320;-60
2022/03/31 00:13:28;;;;;;;;;42.75;33.75;;;;;10.15;70.62;99713.22;4978713;28;45275;-60
2022/03/31 00:15:56;;;;;;;;;43.25;34.75;;;;;10.16;71.37;99717.50;4977969;28;45342;-60
2022/03/31 00:18:22;;;;;;;;;33.50;27.00;;;;;10.17;70.77;99716.59;4978203;28;46218;-60
2022/03/31 00:20:47;;;;;;;;;44.75;30.50;;;;;10.14;70.61;99716.75;4991066;28;45306;-60
2022/03/31 00:23:13;;;;;;;;;38.00;29.75;;;;;10.16;70.13;99717.50;4977242;28;45289;-60
2022/03/31 00:25:39;;;;;;;;;37.50;31.25;;;;;10.19;70.71;99709.59;4978089;28;45615;-60
2022/03/31 00:28:04;;;;;;;;;43.50;34.00;;;;;10.23;70.26;99713.81;4967946;28;46200;-61
2022/03/31 00:30:31;;;;;;;;;34.50;32.75;;;;;10.24;70.16;99711.13;4964857;28;45497;-60
2022/03/31 00:32:57;;;;;;;;;34.50;32.25;;;;;10.21;68.71;99713.88;4978328;28;45299;-61
2022/03/31 00:35:23;;;;;;;;;32.00;28.50;;;;;10.19;69.73;99701.81;4977672;28;45193;-60
2022/03/31 00:37:48;;;;;;;;;39.25;32.00;;;;;10.16;69.68;99707.97;4976740;28;45855;-60
2022/03/31 00:40:18;;;;;;;;;40.75;35.50;;;;;10.13;68.96;99702.91;4978003;28;45421;-61
2022/03/31 00:42:49;;;;;;;;;42.25;34.00;;;;;10.07;69.36;99704.03;4978160;28;45391;-61
2022/03/31 00:45:34;;;;;;;;;37.50;27.25;;;;;10.09;69.65;99701.38;4977856;28;45326;-61
2022/03/31 00:48:00;;;;;;;;;40.75;33.00;;;;;10.12;69.70;99703.81;4977705;28;46263;-61
2022/03/31 00:50:26;;;;;;;;;39.75;33.00;;;;;10.11;69.58;99698.69;4977707;28;45839;-61
2022/03/31 00:52:52;;;;;;;;;34.50;28.25;;;;;10.09;69.83;99692.72;4977984;28;45254;-61
2022/03/31 00:55:19;;;;;;;;;47.25;35.25;;;;;10.09;70.12;99684.94;4978005;28;45326;-61
2022/03/31 00:57:45;;;;;;;;;43.75;36.25;;;;;10.09;70.32;99687.53;4977413;28;46949;-61
2022/03/31 01:00:14;;;;;;;;;49.75;27.00;;;;;10.07;70.31;99693.66;4977732;28;45719;-61
2022/03/31 01:02:41;;;;;;;;;35.75;26.25;;;;;10.03;69.70;99691.25;4977856;28;45386;-61
2022/03/31 01:05:07;;;;;;;;;49.25;32.50;;;;;9.99;69.96;99680.13;4977659;28;45361;-60
2022/03/31 01:07:37;;;;;;;;;40.50;36.50;;;;;9.97;70.33;99674.16;4977410;28;46085;-59
2022/03/31 01:10:04;;;;;;;;;46.00;34.25;;;;;9.95;70.74;99678.56;4977779;28;45165;-60
2022/03/31 01:12:29;;;;;;;;;39.75;31.25;;;;;9.94;70.58;99689.03;4977679;28;45285;-60
2022/03/31 01:15:14;;;;;;;;;45.50;35.50;;;;;9.85;70.44;99677.28;4977559;28;45320;-60
2022/03/31 01:17:43;;;;;;;;;45.75;33.00;;;;;9.76;70.32;99672.47;4977594;28;46442;-60
2022/03/31 01:20:15;;;;;;;;;40.50;26.25;;;;;9.74;70.59;99672.53;4989862;28;45336;-60
2022/03/31 01:22:42;;;;;;;;;40.00;32.50;;;;;9.72;70.76;99673.50;4977669;28;45310;-59
2022/03/31 01:25:09;;;;;;;;;44.50;36.00;;;;;9.70;70.99;99667.53;4977688;28;45306;-60
2022/03/31 01:27:37;;;;;;;;;40.75;29.00;;;;;9.70;71.33;99672.72;4966316;28;46399;-60
2022/03/31 01:30:06;;;;;;;;;55.50;36.75;;;;;9.62;71.81;99662.66;4963110;28;45335;-60
2022/03/31 01:32:32;;;;;;;;;52.50;36.50;;;;;9.60;71.58;99663.59;4977627;28;45357;-59
2022/03/31 01:34:57;;;;;;;;;45.00;35.75;;;;;9.57;72.08;99663.72;4976934;28;45415;-60
2022/03/31 01:37:23;;;;;;;;;49.75;37.75;;;;;9.55;71.94;99658.63;4977273;28;46246;-60
2022/03/31 01:39:48;;;;;;;;;58.25;37.50;;;;;9.53;72.10;99652.66;4977206;28;45248;-60
2022/03/31 01:42:14;;;;;;;;;47.50;34.00;;;;;9.50;72.30;99657.13;4977384;28;45292;-61
2022/03/31 01:44:39;;;;;;;;;41.25;35.25;;;;;9.48;72.62;99653.75;4976977;28;45286;-62
2022/03/31 01:47:05;;;;;;;;;41.75;32.25;;;;;9.44;73.23;99648.69;4977106;28;46050;-61
2022/03/31 01:49:30;;;;;;;;;49.50;39.75;;;;;9.42;72.70;99642.72;4976767;28;45318;-62
2022/03/31 01:51:56;;;;;;;;;36.00;20.75;;;;;9.39;73.31;99653.19;4976983;27;45247;-62
2022/03/31 01:54:21;;;;;;;;;46.50;34.25;;;;;9.33;73.19;99642.22;4975848;28;45188;-62
2022/03/31 01:56:48;;;;;;;;;55.50;36.75;;;;;9.24;73.45;99629.66;4964719;28;45325;-62
2022/03/31 01:59:13;;;;;;;;;39.00;33.00;;;;;9.23;73.76;99631.41;4976703;28;46258;-63
2022/03/31 02:01:39;;;;;;;;;55.00;40.00;;;;;9.21;74.03;99633.22;4977247;28;45358;-62
2022/03/31 02:04:04;;;;;;;;;61.00;43.67;;;;;9.16;73.99;99629.94;4976734;28;45397;-62
2022/03/31 02:06:30;;;;;;;;;54.00;33.75;;;;;9.10;75.00;99630.19;4976623;28;46192;-62
2022/03/31 02:08:56;;;;;;;;;48.75;38.25;;;;;9.04;74.59;99636.47;4976544;28;45364;-62
2022/03/31 02:11:21;;;;;;;;;52.50;41.50;;;;;9.00;74.61;99636.59;4977101;28;45311;-62
2022/03/31 02:13:47;;;;;;;;;46.00;39.50;;;;;8.94;75.44;99631.69;4976531;28;45344;-62
2022/03/31 02:16:13;;;;;;;;;56.75;43.25;;;;;8.88;74.58;99629.31;4976985;28;47871;-62
2022/03/31 02:18:39;;;;;;;;;52.50;39.00;;;;;8.86;74.94;99625.97;4980385;28;45983;-62
2022/03/31 02:21:04;;;;;;;;;53.75;39.75;;;;;8.79;76.19;99627.91;4991900;28;45448;-62
2022/03/31 02:23:30;;;;;;;;;56.00;41.25;;;;;8.74;75.10;99622.06;4979357;28;45231;-62
2022/03/31 02:25:55;;;;;;;;;59.00;41.25;;;;;8.74;75.93;99625.50;4967478;28;45392;-61
2022/03/31 02:28:20;;;;;;;;;54.75;37.75;;;;;8.74;75.29;99622.91;4977402;28;45497;-62
2022/03/31 02:30:46;;;;;;;;;52.25;40.50;;;;;8.71;75.61;99622.19;4961353;28;45595;-62
2022/03/31 02:33:11;;;;;;;;;56.00;41.00;;;;;8.67;76.24;99626.66;4974597;28;45516;-61
2022/03/31 02:35:36;;;;;;;;;52.00;39.75;;;;;8.63;76.71;99626.81;4979134;28;45263;-61
2022/03/31 02:38:02;;;;;;;;;64.25;45.50;;;;;8.61;75.85;99616.53;4974515;28;45222;-61
2022/03/31 02:40:28;;;;;;;;;55.75;43.75;;;;;8.59;76.01;99622.63;4968680;28;45324;-60
2022/03/31 02:42:53;;;;;;;;;60.75;41.75;;;;;8.59;76.20;99620.88;4979567;28;45221;-60
2022/03/31 02:45:20;;;;;;;;;59.50;45.00;;;;;8.59;75.82;99625.22;4979088;28;45993;-60
2022/03/31 02:47:46;;;;;;;;;55.50;44.00;;;;;8.52;76.09;99619.44;4979317;28;45391;-60
2022/03/31 02:50:12;;;;;;;;;45.25;32.50;;;;;8.55;76.62;99627.09;4977965;28;45349;-60
2022/03/31 02:55:25;;;;;;;;;56.00;42.25;;;;;8.55;76.09;99624.50;4979235;28;45502;-60
2022/03/31 02:57:51;;;;;;;;;64.25;43.25;;;;;8.58;76.54;99623.53;4978676;28;45235;-60
2022/03/31 03:00:18;;;;;;;;;58.50;40.50;;;;;8.57;76.84;99622.69;4979304;28;45329;-60
2022/03/31 03:02:43;;;;;;;;;62.75;47.00;;;;;8.56;76.51;99628.78;4979167;28;45557;-59
2022/03/31 03:05:09;;;;;;;;;60.75;45.00;;;;;8.60;76.45;99621.72;4979144;28;46314;-59
2022/03/31 03:07:34;;;;;;;;;59.25;45.00;;;;;8.61;76.35;99619.13;4978852;28;45306;-59
2022/03/31 03:09:59;;;;;;;;;52.25;35.25;;;;;8.59;76.59;99615.72;4978877;28;45503;-59
2022/03/31 03:12:25;;;;;;;;;60.75;42.75;;;;;8.59;76.94;99615.72;4978133;28;45591;-59
2022/03/31 03:14:51;;;;;;;;;61.67;44.33;;;;;8.57;76.74;99614.94;4976696;28;46021;-60
2022/03/31 03:17:17;;;;;;;;;56.50;44.25;;;;;8.54;76.68;99605.53;4976329;28;45833;-60
2022/03/31 03:19:43;;;;;;;;;64.75;44.75;;;;;8.56;76.38;99607.22;4967488;28;45413;-60
2022/03/31 03:22:08;;;;;;;;;62.50;45.50;;;;;8.56;76.55;99599.44;4973221;28;45323;-60
2022/03/31 03:24:33;;;;;;;;;56.00;44.00;;;;;8.52;76.14;99596.97;4976680;28;45599;-60
2022/03/31 03:26:59;;;;;;;;;63.50;45.25;;;;;8.51;76.23;99600.47;4975290;28;45379;-60
2022/03/31 03:29:24;;;;;;;;;62.75;44.00;;;;;8.48;76.22;99595.41;4984844;28;45473;-61
2022/03/31 03:31:52;;;;;;;;;64.75;44.25;;;;;8.46;75.96;99592.03;4978760;28;45184;-62
2022/03/31 03:34:17;;;;;;;;;60.75;46.00;;;;;8.49;76.84;99593.66;4978597;28;47254;-62
2022/03/31 03:36:43;;;;;;;;;65.75;45.00;;;;;8.47;76.75;99585.13;4978494;28;45416;-60
2022/03/31 03:39:08;;;;;;;;;62.25;46.00;;;;;8.46;76.38;99588.59;4979013;28;45445;-60
2022/03/31 03:41:33;;;;;;;;;56.00;39.75;;;;;8.44;76.21;99583.50;4978594;28;45465;-60
2022/03/31 03:43:58;;;;;;;;;59.67;46.00;;;;;8.42;76.57;99581.88;4978746;28;45292;-60
2022/03/31 03:46:24;;;;;;;;;63.25;48.50;;;;;8.43;75.98;99589.56;4978525;28;45411;-61
2022/03/31 03:48:49;;;;;;;;;56.50;41.00;;;;;8.42;76.46;99587.88;4978824;28;45268;-61
2022/03/31 03:51:15;;;;;;;;;61.25;44.00;;;;;8.41;75.99;99583.59;4976923;28;45528;-61
2022/03/31 03:53:40;;;;;;;;;54.25;40.50;;;;;8.39;75.72;99584.53;4978672;28;47050;-61
2022/03/31 03:56:05;;;;;;;;;62.25;44.00;;;;;8.35;76.27;99580.38;4978255;28;45424;-61
2022/03/31 03:58:31;;;;;;;;;51.50;35.00;;;;;8.32;75.78;99593.41;4978743;28;45360;-61
2022/03/31 04:00:56;;;;;;;;;52.25;38.75;;;;;8.31;76.20;99591.72;4978127;28;45348;-62
2022/03/31 04:03:21;;;;;;;;;64.00;46.50;;;;;8.23;76.50;99592.84;4978347;28;46056;-62
2022/03/31 04:05:47;;;;;;;;;61.25;44.50;;;;;8.22;76.09;99590.31;4977926;28;45548;-62
2022/03/31 04:08:14;;;;;;;;;47.50;38.00;;;;;8.21;75.70;99586.91;4978504;28;45329;-61
2022/03/31 04:10:39;;;;;;;;;38.75;28.50;;;;;8.19;76.03;99583.50;4971386;28;45391;-61
2022/03/31 04:13:05;;;;;;;;;62.50;44.75;;;;;8.19;75.57;99590.41;4967694;28;46023;-60
2022/03/31 04:15:30;;;;;;;;;59.00;41.50;;;;;8.19;75.94;99586.06;4978198;28;45413;-65
2022/03/31 04:17:55;;;;;;;;;62.75;47.50;;;;;8.15;75.52;99581.06;4978431;28;45421;-65
2022/03/31 04:20:21;;;;;;;;;56.75;42.00;;;;;8.14;75.45;99588.00;4977514;28;45443;-66
2022/03/31 04:22:46;;;;;;;;;59.75;43.75;;;;;8.12;75.12;99589.78;4978250;28;45243;-67
2022/03/31 04:25:13;;;;;;;;;61.25;41.25;;;;;8.09;75.92;99591.66;4977858;28;45169;-66
2022/03/31 04:27:40;;;;;;;;;61.50;44.00;;;;;8.05;75.49;99590.94;4978222;28;45382;-66
2022/03/31 04:30:09;;;;;;;;;56.00;44.00;;;;;8.00;76.05;99592.81;4978859;28;45586;-67
2022/03/31 04:32:35;;;;;;;;;60.25;43.25;;;;;7.91;76.15;99593.97;4977850;28;46322;-67
2022/03/31 04:35:00;;;;;;;;;58.50;42.25;;;;;7.87;75.98;99596.75;4977367;28;45567;-67
2022/03/31 04:37:26;;;;;;;;;62.00;43.25;;;;;7.81;75.82;99592.63;4977982;28;45320;-68
2022/03/31 04:39:51;;;;;;;;;56.25;42.25;;;;;7.82;76.33;99604.66;4977346;28;45266;-69
2022/03/31 04:42:17;;;;;;;;;60.25;42.25;;;;;7.80;76.33;99597.81;4977659;28;46435;-68
2022/03/31 04:44:43;;;;;;;;;63.75;48.75;;;;;7.74;76.03;99595.47;4977498;28;45251;-66
2022/03/31 04:47:11;;;;;;;;;60.50;43.75;;;;;7.72;75.97;99592.09;4978170;28;45315;-66
2022/03/31 04:49:36;;;;;;;;;46.75;33.75;;;;;7.72;75.95;99586.91;4977481;28;45272;-66
2022/03/31 04:52:04;;;;;;;;;64.50;49.00;;;;;7.72;75.80;99586.91;4977610;28;46409;-70
2022/03/31 04:54:29;;;;;;;;;64.50;47.75;;;;;7.68;76.61;99578.41;4977256;28;46356;-67
2022/03/31 04:56:54;;;;;;;;;62.50;44.50;;;;;7.68;76.15;99581.00;4977249;28;45149;-66
2022/03/31 04:59:20;;;;;;;;;55.00;38.75;;;;;7.66;76.27;99587.13;4977012;28;45231;-67
2022/03/31 05:01:46;;;;;;;;;59.75;45.75;;;;;7.60;76.62;99575.22;4977628;28;46101;-66
2022/03/31 05:04:12;;;;;;;;;58.50;39.75;;;;;7.61;76.73;99590.72;4977181;28;45410;-66
2022/03/31 05:06:37;;;;;;;;;61.50;45.25;;;;;7.56;76.58;99587.44;4977761;28;45295;-68
2022/03/31 05:09:03;;;;;;;;;66.00;46.75;;;;;7.56;76.98;99584.84;4977486;28;45418;-68
2022/03/31 05:11:29;;;;;;;;;65.00;47.00;;;;;7.56;76.93;99591.75;4977674;28;46166;-68
2022/03/31 05:13:54;;;;;;;;;65.00;46.33;;;;;7.53;76.99;99582.38;4977675;28;45446;-75
2022/03/31 05:16:20;;;;;;;;;63.50;48.50;;;;;7.54;77.30;99599.56;4978327;28;45339;-73
2022/03/31 05:18:47;;;;;;;;;67.50;45.25;;;;;7.51;77.07;99597.09;4975465;28;45556;-68
2022/03/31 05:21:13;;;;;;;;;62.25;50.00;;;;;7.53;76.83;99600.47;4965934;28;46260;-69
2022/03/31 05:23:38;;;;;;;;;70.25;50.00;;;;;7.58;76.69;99614.06;4976649;28;45425;-67
2022/03/31 05:26:04;;;;;;;;;49.00;42.75;;;;;7.58;76.54;99610.63;4977537;28;45599;-67
2022/03/31 05:28:30;;;;;;;;;62.75;48.00;;;;;7.57;77.26;99604.63;4974068;28;45247;-66
2022/03/31 05:30:55;;;;;;;;;70.50;49.00;;;;;7.57;77.08;99606.38;4967067;28;46155;-67
2022/03/31 05:33:21;;;;;;;;;71.50;49.25;;;;;7.55;77.19;99608.16;4973635;28;45324;-61
2022/03/31 05:35:46;;;;;;;;;64.25;46.75;;;;;7.53;77.38;99607.38;4967063;28;45296;-68
2022/03/31 05:38:11;;;;;;;;;69.00;51.75;;;;;7.52;77.86;99614.28;4976565;28;45727;-68
2022/03/31 05:40:37;;;;;;;;;75.00;54.75;;;;;7.51;77.18;99611.75;4977188;28;46297;-69
2022/03/31 05:43:02;;;;;;;;;66.67;47.67;;;;;7.52;78.00;99624.63;4976789;28;45323;-67
2022/03/31 05:45:28;;;;;;;;;66.25;48.25;;;;;7.56;77.92;99617.59;4976884;28;45199;-68
2022/03/31 05:47:54;;;;;;;;;71.25;51.00;;;;;7.60;77.62;99617.44;4976519;28;45182;-64
2022/03/31 05:50:20;;;;;;;;;70.00;50.75;;;;;7.63;78.14;99616.53;4976839;28;46151;-63
2022/03/31 05:52:45;;;;;;;;;69.75;47.75;;;;;7.63;78.41;99619.97;4979704;28;45278;-66
2022/03/31 05:55:16;;;;;;;;;69.50;52.00;;;;;7.62;78.68;99620.84;4979702;28;45476;-70
2022/03/31 05:57:41;;;;;;;;;81.75;51.00;;;;;7.57;78.17;99620.13;4979549;28;45237;-64
2022/03/31 06:00:21;;;;;;;;;74.25;54.00;;;;;7.60;78.56;99638.13;4979690;28;45219;-69
2022/03/31 06:02:48;;;;;;;;;68.50;51.00;;;;;7.60;79.15;99630.38;4976300;28;45248;-68
2022/03/31 06:05:14;;;;;;;;;79.00;55.75;;;;;7.62;78.69;99633.78;4979697;28;45493;-67
2022/03/31 06:07:39;;;;;;;;;78.50;54.75;;;;;7.66;78.71;99644.03;4967415;28;45342;-67
2022/03/31 06:10:06;;;;;;;;;79.50;59.00;;;;;7.72;78.34;99636.03;4977247;28;46114;-67
2022/03/31 06:12:32;;;;;;;;;74.50;52.50;;;;;7.70;79.87;99643.00;4978762;28;45705;-66
2022/03/31 06:14:57;;;;;;;;;78.00;55.00;;;;;7.70;79.61;99643.84;4979508;28;45397;-68
2022/03/31 06:17:23;;;;;;;;;75.50;55.25;;;;;7.68;79.79;99637.06;4979223;28;45207;-67
2022/03/31 06:19:49;;;;;;;;;81.00;58.25;;;;;7.69;79.24;99643.91;4977764;28;46096;-66
2022/03/31 06:22:14;;;;;;;;;77.25;54.75;;;;;7.77;79.19;99645.34;4978495;28;45346;-66
2022/03/31 06:24:40;;;;;;;;;76.25;55.25;;;;;7.83;79.57;99647.75;4979512;28;45457;-66
2022/03/31 06:27:08;;;;;;;;;60.00;50.25;;;;;7.86;79.19;99651.97;4978541;28;45488;-66
2022/03/31 06:29:34;;;;;;;;;67.75;46.50;;;;;7.84;78.68;99646.00;4967480;28;46450;-66
2022/03/31 06:32:00;;;;;;;;;66.75;49.50;;;;;7.89;78.61;99650.09;4975816;28;45263;-66
2022/03/31 06:34:26;;;;;;;;;68.00;43.50;;;;;7.91;78.15;99639.69;4978542;28;45212;-66
2022/03/31 06:36:51;;;;;;;;;78.25;52.00;;;;;7.99;77.93;99650.63;4978934;28;45265;-67
2022/03/31 06:39:17;;;;;;;;;80.50;54.75;;;;;8.06;77.79;99646.94;4979185;28;46483;-67
2022/03/31 06:41:42;;;;;;;;;78.00;54.25;;;;;8.10;77.29;99645.09;4979032;28;45248;-67
2022/03/31 06:44:08;;;;;;;;;77.25;51.50;;;;;8.10;76.92;99638.16;4978848;28;45243;-67
2022/03/31 06:46:35;;;;;;;;;63.00;43.00;;;;;8.14;77.28;99639.75;4979029;28;45422;-67
2022/03/31 06:49:01;;;;;;;;;78.75;51.50;;;;;8.25;76.71;99634.22;4978937;28;46168;-67
2022/03/31 06:51:26;;;;;;;;;66.50;48.00;;;;;8.32;76.74;99637.41;4978464;28;45273;-67
2022/03/31 06:53:52;;;;;;;;;70.50;50.00;;;;;8.44;76.58;99637.00;4978922;28;45422;-67
2022/03/31 06:56:18;;;;;;;;;73.75;52.00;;;;;8.58;76.13;99637.34;4978400;28;45517;-67
2022/03/31 06:58:44;;;;;;;;;67.75;46.25;;;;;8.67;76.15;99642.19;4979083;28;47011;-67
2022/03/31 07:01:10;;;;;;;;;71.25;50.50;;;;;8.75;75.61;99640.13;4978329;28;45725;-67
2022/03/31 07:03:36;;;;;;;;;65.75;46.50;;;;;8.77;74.97;99635.75;4979341;28;45181;-67
2022/03/31 07:06:01;;;;;;;;;69.00;48.00;;;;;8.82;74.31;99643.38;4978507;28;45219;-66
2022/03/31 07:08:27;;;;;;;;;70.00;51.00;;;;;8.86;74.90;99637.16;4971771;28;45182;-66
2022/03/31 07:10:53;;;;;;;;;70.50;45.75;;;;;8.96;74.58;99648.00;4976613;28;45168;-66
2022/03/31 07:13:18;;;;;;;;;60.50;47.25;;;;;8.97;75.03;99645.34;4979187;28;45225;-67
2022/03/31 07:15:44;;;;;;;;;77.00;51.25;;;;;8.96;73.98;99650.59;4978503;28;45217;-67
2022/03/31 07:18:10;;;;;;;;;68.50;50.25;;;;;8.95;74.68;99639.38;4968639;28;46451;-67
2022/03/31 07:20:36;;;;;;;;;61.00;47.25;;;;;8.94;74.47;99642.88;4977260;28;45272;-61
2022/03/31 07:23:02;;;;;;;;;69.75;48.50;;;;;8.91;74.63;99643.00;4979044;28;45385;-65
2022/03/31 07:25:29;;;;;;;;;72.25;50.75;;;;;8.86;74.42;99647.53;4978608;28;45580;-66
2022/03/31 07:27:55;;;;;;;;;67.50;49.50;;;;;8.83;74.52;99652.81;4978438;28;46148;-66
2022/03/31 07:30:22;;;;;;;;;38.50;31.00;;;;;8.86;74.87;99652.69;4978976;28;45505;-67
2022/03/31 07:32:58;;;;;;;;;71.00;48.50;;;;;8.87;74.96;99648.38;4978375;28;45169;-69
2022/03/31 07:35:26;;;;;;;;;64.75;46.25;;;;;8.84;75.17;99652.75;4973823;28;45236;-72
2022/03/31 07:37:53;;;;;;;;;62.25;47.25;;;;;8.88;74.92;99655.25;4965910;28;46400;-70
2022/03/31 07:40:20;;;;;;;;;66.50;48.75;;;;;8.93;75.46;99654.16;4967941;28;45987;-69
2022/03/31 07:42:46;;;;;;;;;70.00;50.50;;;;;8.94;75.41;99660.19;4967140;28;45568;-70
2022/03/31 07:45:11;;;;;;;;;71.25;52.50;;;;;8.89;75.10;99659.50;4965133;28;45544;-69
2022/03/31 07:47:38;;;;;;;;;72.00;51.50;;;;;8.82;75.20;99666.69;4966965;28;45436;-68
2022/03/31 07:50:05;;;;;;;;;77.25;54.25;;;;;8.72;75.73;99655.81;4965975;28;45768;-69
2022/03/31 07:52:31;;;;;;;;;58.75;41.50;;;;;8.64;78.62;99669.94;4967877;28;45629;-69
2022/03/31 07:54:56;;;;;;;;;66.25;50.25;;;;;8.54;77.24;99672.84;4966760;28;45609;-69
2022/03/31 07:57:21;;;;;;;;;67.50;46.50;;;;;8.38;78.64;99660.50;4964981;28;46421;-68
2022/03/31 07:59:47;;;;;;;;;73.50;50.75;;;;;8.21;79.55;99672.28;4966052;28;45446;-69
2022/03/31 08:02:12;;;;;;;;;54.25;41.00;;;;;8.07;81.07;99678.84;4969216;28;45428;-68
2022/03/31 08:04:38;;;;;;;;;63.75;48.00;;;;;7.97;81.17;99683.47;4964528;28;45663;-68
2022/03/31 08:07:03;;;;;;;;;46.00;27.75;;;;;7.82;81.88;99687.44;4983628;28;45332;-68
2022/03/31 08:09:29;;;;;;;;;45.25;39.50;;;;;7.63;80.19;99707.88;5001565;28;45346;-68
2022/03/31 08:11:55;;;;;;;;;37.25;28.25;;;;;7.41;80.36;99686.19;4978696;28;45237;-67
2022/03/31 08:14:21;;;;;;;;;26.00;20.00;;;;;7.19;80.16;99706.63;4967379;28;45244;-70
2022/03/31 08:16:48;;;;;;;;;23.75;15.00;;;;;6.96;79.87;99720.25;4971200;28;47268;-70
2022/03/31 08:19:15;;;;;;;;;24.25;20.50;;;;;6.83;79.64;99724.09;4990490;28;45792;-70
2022/03/31 08:21:42;;;;;;;;;26.00;19.25;;;;;6.62;79.46;99724.69;4979418;28;45340;-69
2022/03/31 08:24:08;;;;;;;;;22.75;18.25;;;;;6.54;80.51;99726.63;4966892;28;45397;-69
2022/03/31 08:26:33;;;;;;;;;15.00;13.50;;;;;6.45;79.83;99735.47;4977637;28;45441;-69
2022/03/31 08:28:59;;;;;;;;;20.00;18.00;;;;;6.41;79.50;99749.34;4977219;28;45376;-68
2022/03/31 08:31:25;;;;;;;;;16.00;9.00;;;;;6.32;78.74;99732.34;4978156;28;45493;-69
2022/03/31 08:33:50;;;;;;;;;12.25;11.75;;;;;6.26;78.58;99748.00;4977547;28;45602;-67
2022/03/31 08:36:16;;;;;;;;;14.75;11.50;;;;;6.16;78.73;99751.69;4964853;28;45215;-68
2022/03/31 08:38:43;;;;;;;;;9.75;4.50;;;;;6.11;78.66;99753.53;4978083;28;45303;-67
2022/03/31 08:41:08;;;;;;;;;28.00;17.75;;;;;6.05;79.58;99754.56;4977922;28;45199;-68
2022/03/31 08:43:37;;;;;;;;;17.00;14.25;;;;;6.11;79.27;99758.69;4977728;28;45509;-68
2022/03/31 08:46:06;;;;;;;;;16.75;11.50;;;;;6.13;79.71;99756.06;4977601;28;45422;-67
2022/03/31 08:48:32;;;;;;;;;21.25;16.75;;;;;6.17;79.23;99760.28;4977750;28;45153;-68
2022/03/31 08:50:58;;;;;;;;;15.00;12.50;;;;;6.15;79.25;99765.47;4977556;28;45426;-68
2022/03/31 08:53:23;;;;;;;;;18.75;13.50;;;;;6.08;79.18;99761.34;4977358;28;45155;-68
2022/03/31 08:55:49;;;;;;;;;18.50;12.75;;;;;6.16;79.12;99776.63;4977625;28;46342;-68
2022/03/31 08:58:14;;;;;;;;;15.50;12.25;;;;;6.14;81.33;99778.41;4977616;28;45394;-69
2022/03/31 09:00:41;;;;;;;;;12.00;10.00;;;;;6.11;82.23;99794.81;4970832;28;45280;-68
2022/03/31 09:03:10;;;;;;;;;11.50;9.75;;;;;6.11;81.91;99802.56;4966737;28;45503;-69
2022/03/31 09:05:38;;;;;;;;;12.25;10.75;;;;;6.07;80.64;99793.19;4969994;28;46438;-70
2022/03/31 09:08:05;;;;;;;;;10.25;9.75;;;;;5.97;80.47;99813.19;4967194;28;45391;-69
2022/03/31 09:10:33;;;;;;;;;12.50;9.00;;;;;5.85;81.51;99820.34;4969825;28;45460;-70
2022/03/31 09:13:02;;;;;;;;;14.25;13.00;;;;;5.70;81.04;99819.81;4969000;27;45376;-69
2022/03/31 09:15:28;;;;;;;;;6.25;6.25;;;;;5.55;81.54;99834.75;4963541;28;46208;-70
2022/03/31 09:17:55;;;;;;;;;9.50;8.00;;;;;5.55;83.09;99830.44;4973370;28;45279;-70
2022/03/31 09:20:21;;;;;;;;;10.00;10.00;;;;;5.48;83.89;99840.03;4965426;28;45323;-69
2022/03/31 09:22:51;;;;;;;;;8.00;8.00;;;;;5.48;84.21;99839.19;4965331;28;45496;-69
2022/03/31 09:25:29;;;;;;;;;12.00;11.00;;;;;5.48;83.89;99852.91;4971184;28;46192;-69
2022/03/31 09:27:56;;;;;;;;;12.00;11.75;;;;;5.42;83.28;99839.31;4977366;28;45308;-68
2022/03/31 09:30:24;;;;;;;;;8.75;5.50;;;;;5.38;82.91;99845.41;4963919;28;45375;-69
2022/03/31 09:32:51;;;;;;;;;13.75;11.25;;;;;5.30;84.02;99849.88;4977189;28;45501;-69
2022/03/31 09:35:24;;;;;;;;;10.50;9.75;;;;;5.30;83.57;99858.44;4976552;28;46009;-68
2022/03/31 09:37:55;;;;;;;;;4.50;4.50;;;;;5.29;84.60;99858.47;4977287;28;45226;-69
2022/03/31 09:40:21;;;;;;;;;9.25;6.00;;;;;5.24;84.66;99865.47;4977158;28;45336;-69
2022/03/31 09:42:57;;;;;;;;;8.50;6.00;;;;;5.23;84.75;99856.03;4977039;28;45485;-69
2022/03/31 09:45:22;;;;;;;;;7.50;7.50;;;;;5.23;85.87;99866.34;4965299;28;47017;-68
2022/03/31 09:47:51;;;;;;;;;6.00;6.00;;;;;5.23;83.98;99869.75;4976873;28;45343;-68
2022/03/31 09:50:17;;;;;;;;;6.00;6.00;;;;;5.26;85.01;99874.84;4976818;28;45315;-68
2022/03/31 09:52:43;;;;;;;;;12.00;9.25;;;;;5.30;85.91;99873.06;4976412;28;45479;-68
2022/03/31 09:55:10;;;;;;;;;13.50;9.25;;;;;5.39;86.07;99870.28;4976512;28;45372;-68
2022/03/31 09:57:40;;;;;;;;;7.75;5.50;;;;;5.42;85.07;99876.25;4975777;28;45930;-68
2022/03/31 10:00:07;;;;;;;;;9.00;6.50;;;;;5.37;85.71;99878.03;4976746;28;45360;-68
2022/03/31 10:02:35;;;;;;;;;9.50;8.25;;;;;5.32;86.00;99861.84;4976472;28;45211;-68
2022/03/31 10:05:03;;;;;;;;;18.00;14.25;;;;;5.34;86.11;99869.53;4976344;28;45410;-68
2022/03/31 10:07:30;;;;;;;;;6.50;6.50;;;;;5.39;85.42;99872.84;4976359;28;45785;-68
2022/03/31 10:09:56;;;;;;;;;14.00;11.00;;;;;5.43;86.83;99874.53;4976397;28;45386;-68
2022/03/31 10:12:43;;;;;;;;;18.00;9.00;;;;;5.46;86.38;99877.03;4976263;28;45295;-68
2022/03/31 10:15:14;;;;;;;;;8.50;8.00;;;;;5.49;86.20;99876.97;4976067;28;46498;-68
2022/03/31 10:17:41;;;;;;;;;5.00;5.00;;;;;5.46;85.52;99887.34;4982660;28;45773;-68
2022/03/31 10:20:12;;;;;;;;;6.00;5.50;;;;;5.44;86.31;99883.94;4981296;28;45370;-68
2022/03/31 10:25:33;;;;;;;;;13.00;9.50;;;;;5.55;84.93;99889.72;4977449;28;46346;-71
2022/03/31 10:28:08;;;;;;;;;8.25;4.00;;;;;5.60;85.45;99880.16;4992558;28;45362;-71
2022/03/31 10:30:33;;;;;;;;;6.50;6.00;;;;;5.66;84.88;99879.19;4964879;28;45407;-70
2022/03/31 10:33:03;;;;;;;;;9.25;5.00;;;;;5.71;84.61;99887.66;4971279;28;45331;-70
2022/03/31 10:35:29;;;;;;;;;6.00;5.00;;;;;5.79;85.17;99862.56;4965807;28;45507;-71
2022/03/31 10:37:57;;;;;;;;;9.75;4.00;;;;;5.86;85.62;99873.59;4969389;28;45443;-69
2022/03/31 10:40:34;;;;;;;;;5.00;3.00;;;;;5.93;86.62;99872.59;4968046;28;45414;-68
2022/03/31 10:42:59;;;;;;;;;4.00;2.50;;;;;5.89;84.98;99866.66;4968754;28;45360;-68
2022/03/31 10:45:40;;;;;;;;;8.00;5.00;;;;;5.92;85.13;99865.75;4981671;28;45342;-69
2022/03/31 10:48:22;;;;;;;;;3.00;2.75;;;;;6.00;86.51;99879.31;4968774;28;45970;-69
2022/03/31 10:51:07;;;;;;;;;5.50;4.25;;;;;6.05;86.65;99872.34;4967686;28;46513;-70
2022/03/31 10:53:36;;;;;;;;;5.75;5.25;;;;;6.28;85.93;99890.72;4968520;28;45868;-69
2022/03/31 10:56:14;;;;;;;;;5.75;5.75;;;;;6.45;87.37;99863.66;4970647;28;47008;-68
2022/03/31 10:58:41;;;;;;;;;6.00;5.75;;;;;6.61;84.63;99867.56;4968006;28;45731;-68
2022/03/31 11:01:06;;;;;;;;;6.00;6.00;;;;;6.77;81.14;99870.56;4968544;28;45220;-67
2022/03/31 11:03:32;;;;;;;;;5.00;4.00;;;;;6.90;80.13;99871.97;4969234;28;46366;-68
2022/03/31 11:06:01;;;;;;;;;7.25;3.75;;;;;7.04;80.96;99879.34;4968400;28;46027;-68
2022/03/31 11:08:26;;;;;;;;;5.50;4.25;;;;;7.10;82.95;99871.44;4968055;28;45520;-69
2022/03/31 11:10:54;;;;;;;;;6.00;5.00;;;;;7.23;80.28;99867.63;4967406;28;45394;-68
2022/03/31 11:13:33;;;;;;;;;8.00;7.00;;;;;7.42;80.55;99866.22;4967724;28;45431;-68
2022/03/31 11:15:59;;;;;;;;;6.50;6.50;;;;;7.49;80.66;99859.13;4969962;28;46321;-71
2022/03/31 11:18:25;;;;;;;;;7.50;5.00;;;;;7.55;76.61;99864.13;4987503;28;45653;-69
2022/03/31 11:20:57;;;;;;;;;7.75;7.75;;;;;7.44;77.74;99867.03;4969639;28;45350;-69
2022/03/31 11:23:24;;;;;;;;;9.00;6.00;;;;;7.32;78.51;99869.94;4969130;28;45377;-69
2022/03/31 11:25:50;;;;;;;;;6.75;5.50;;;;;7.23;78.22;99862.47;4966778;28;45495;-69
2022/03/31 11:28:15;;;;;;;;;9.25;5.00;;;;;7.17;77.14;99866.03;4969404;28;45422;-69
2022/03/31 11:30:43;;;;;;;;;5.50;2.25;;;;;7.19;75.78;99872.00;4979642;28;45450;-69